Time;durP1;ratioP1;P1;durP2;ratioP2;P2;SDS_P1;SDS_P2;PMS_P1;PMS_P2;Temp;Humidity;BMP_temperature;BMP_pressure;BME280_temperature;BME280_humidity;BME280_pressure;Samples;Min_cycle;Max_cycle;Signal;HPM_P1;HPM_P2
2023/03/11 00:02:14;;;;;;;;;;;7.00;62.20;;;;;;4993777;28;20005;-89
2023/03/11 00:04:40;;;;;;;;;;;7.00;62.30;;;;;;4994578;28;19914;-91
2023/03/11 00:07:07;;;;;;;;;;;7.10;62.20;;;;;;4975884;28;20395;-91
2023/03/11 00:09:33;;;;;;;;;;;7.10;62.00;;;;;;4993603;28;20439;-88
2023/03/11 00:11:58;;;;;;;;;;;7.00;62.00;;;;;;4993559;28;19965;-89
2023/03/11 00:14:24;;;;;;;;;;;7.00;62.10;;;;;;4994035;28;20054;-89
2023/03/11 00:16:50;;;;;;;;;;;7.00;62.00;;;;;;4993436;28;19922;-90
2023/03/11 00:19:15;;;;;;;;;;;7.00;62.00;;;;;;4976034;28;20049;-90
2023/03/11 00:21:41;;;;;;;;;;;7.00;62.00;;;;;;4993649;28;19925;-89
2023/03/11 00:24:06;;;;;;;;;;;7.00;62.10;;;;;;4993405;28;19913;-88
2023/03/11 00:26:32;;;;;;;;;;;7.00;62.20;;;;;;4993127;28;20016;-90
2023/03/11 00:28:57;;;;;;;;;;;7.00;62.20;;;;;;4993673;28;19914;-90
2023/03/11 00:31:25;;;;;;;;;;;7.00;62.10;;;;;;4993567;28;19932;-90
2023/03/11 00:33:51;;;;;;;;;;;7.00;62.10;;;;;;4976089;28;19917;-89
2023/03/11 00:36:27;;;;;;;;;;;7.00;62.00;;;;;;4993588;28;20300;-90
2023/03/11 00:38:53;;;;;;;;;;;7.00;62.00;;;;;;4993570;28;19913;-90
2023/03/11 00:41:19;;;;;;;;;;;7.00;62.10;;;;;;4993524;28;20584;-89
2023/03/11 00:43:44;;;;;;;;;;;7.00;62.10;;;;;;4993473;28;19939;-88
2023/03/11 00:46:10;;;;;;;;;;;7.00;62.10;;;;;;4993303;28;19920;-89
2023/03/11 00:48:36;;;;;;;;;;;7.00;62.00;;;;;;4975416;28;20308;-89
2023/03/11 00:51:01;;;;;;;;;;;7.00;62.00;;;;;;4992998;28;19914;-89
2023/03/11 00:53:28;;;;;;;;;;;7.00;62.00;;;;;;4993012;28;19945;-87
2023/03/11 00:55:53;;;;;;;;;;;7.00;61.90;;;;;;4975798;28;19976;-90
2023/03/11 00:58:21;;;;;;;;;;;7.10;61.90;;;;;;4992777;28;19971;-90
2023/03/11 01:00:47;;;;;;;;;;;7.00;61.90;;;;;;4992353;28;20384;-90
2023/03/11 01:03:13;;;;;;;;;;;7.10;61.90;;;;;;4992557;28;20419;-90
2023/03/11 01:05:38;;;;;;;;;;;7.00;61.80;;;;;;4992701;28;19910;-91
2023/03/11 01:08:04;;;;;;;;;;;7.00;61.80;;;;;;4992554;28;19928;-89
2023/03/11 01:10:30;;;;;;;;;;;7.00;61.80;;;;;;4992801;28;19917;-88
2023/03/11 01:12:56;;;;;;;;;;;7.00;61.90;;;;;;4975414;28;19921;-88
2023/03/11 01:15:23;;;;;;;;;;;7.00;62.00;;;;;;4975055;28;20328;-88
2023/03/11 01:17:48;;;;;;;;;;;7.00;62.00;;;;;;4992258;28;19926;-89
2023/03/11 01:20:14;;;;;;;;;;;7.00;62.00;;;;;;4992028;28;19914;-90
2023/03/11 01:22:40;;;;;;;;;;;7.00;62.00;;;;;;4974957;28;20292;-89
2023/03/11 01:25:05;;;;;;;;;;;7.00;62.00;;;;;;4992290;28;19931;-89
2023/03/11 01:27:31;;;;;;;;;;;7.00;62.00;;;;;;4992464;28;20004;-90
2023/03/11 01:29:56;;;;;;;;;;;7.10;62.00;;;;;;4992299;28;19917;-90
2023/03/11 01:32:22;;;;;;;;;;;7.10;62.10;;;;;;4991986;28;19925;-89
2023/03/11 01:34:47;;;;;;;;;;;7.00;61.90;;;;;;4992231;28;20272;-90
2023/03/11 01:37:13;;;;;;;;;;;7.00;61.90;;;;;;4991952;28;19921;-89
2023/03/11 01:39:39;;;;;;;;;;;7.10;61.90;;;;;;4992060;28;19996;-90
2023/03/11 01:42:04;;;;;;;;;;;7.10;61.90;;;;;;4992369;28;20629;-88
2023/03/11 01:44:30;;;;;;;;;;;7.10;62.00;;;;;;4992200;28;19937;-87
2023/03/11 01:46:58;;;;;;;;;;;7.00;62.00;;;;;;4990573;28;20029;-90
2023/03/11 01:49:24;;;;;;;;;;;7.10;61.90;;;;;;4990869;28;19954;-89
2023/03/11 01:51:51;;;;;;;;;;;7.10;61.90;;;;;;4991239;28;20000;-88
2023/03/11 01:54:19;;;;;;;;;;;7.10;61.90;;;;;;4974030;28;19922;-90
2023/03/11 01:56:45;;;;;;;;;;;7.10;61.90;;;;;;4991205;28;20013;-89
2023/03/11 01:59:12;;;;;;;;;;;7.10;61.90;;;;;;4992237;28;19957;-89
2023/03/11 02:01:42;;;;;;;;;;;7.10;61.90;;;;;;4974422;28;19914;-90
2023/03/11 02:04:08;;;;;;;;;;;7.20;61.90;;;;;;4974306;28;19921;-89
2023/03/11 02:06:34;;;;;;;;;;;7.10;61.80;;;;;;4991399;28;19914;-90
2023/03/11 02:08:59;;;;;;;;;;;7.10;61.80;;;;;;4991890;28;19921;-89
2023/03/11 02:11:27;;;;;;;;;;;7.10;61.90;;;;;;4991887;28;19965;-89
2023/03/11 02:13:54;;;;;;;;;;;7.10;61.90;;;;;;4991832;28;19957;-88
2023/03/11 02:16:20;;;;;;;;;;;7.20;61.90;;;;;;4991325;28;19968;-88
2023/03/11 02:18:45;;;;;;;;;;;7.20;61.90;;;;;;4991273;28;19957;-89
2023/03/11 02:21:23;;;;;;;;;;;7.20;62.00;;;;;;4991567;28;19953;-87
2023/03/11 02:24:01;;;;;;;;;;;7.20;62.00;;;;;;4973807;28;19963;-90
2023/03/11 02:26:34;;;;;;;;;;;7.20;62.00;;;;;;4991189;28;19930;-89
2023/03/11 02:29:03;;;;;;;;;;;7.20;61.90;;;;;;4991394;28;19922;-87
2023/03/11 02:31:30;;;;;;;;;;;7.10;61.90;;;;;;4991266;28;19917;-89
2023/03/11 02:33:58;;;;;;;;;;;7.10;62.00;;;;;;4989734;28;19985;-89
2023/03/11 02:36:34;;;;;;;;;;;7.20;61.70;;;;;;4991023;28;20439;-88
2023/03/11 02:39:00;;;;;;;;;;;7.10;61.80;;;;;;4990779;28;20048;-90
2023/03/11 02:41:26;;;;;;;;;;;7.10;61.80;;;;;;4990928;28;19996;-89
2023/03/11 02:43:52;;;;;;;;;;;7.10;61.70;;;;;;4990589;28;19924;-88
2023/03/11 02:46:18;;;;;;;;;;;7.10;61.70;;;;;;4990977;28;20640;-89
2023/03/11 02:48:43;;;;;;;;;;;7.00;61.70;;;;;;4990696;28;20296;-90
2023/03/11 02:51:09;;;;;;;;;;;7.00;61.80;;;;;;4990653;28;19910;-88
2023/03/11 02:53:37;;;;;;;;;;;6.90;61.90;;;;;;4973185;28;19929;-87
2023/03/11 02:56:03;;;;;;;;;;;6.90;61.70;;;;;;4990746;28;19924;-88
2023/03/11 02:58:28;;;;;;;;;;;6.80;61.70;;;;;;4972829;28;19929;-88
2023/03/11 03:00:54;;;;;;;;;;;6.70;61.70;;;;;;4990540;28;19909;-90
2023/03/11 03:03:20;;;;;;;;;;;6.70;61.70;;;;;;4990398;28;19921;-89
2023/03/11 03:05:45;;;;;;;;;;;6.60;61.70;;;;;;4990655;28;19956;-87
2023/03/11 03:08:11;;;;;;;;;;;6.50;61.60;;;;;;4990314;28;19918;-88
2023/03/11 03:10:36;;;;;;;;;;;6.40;61.70;;;;;;4988839;28;20411;-89
2023/03/11 03:13:02;;;;;;;;;;;6.40;61.90;;;;;;4990529;28;19918;-90
2023/03/11 03:15:27;;;;;;;;;;;6.40;62.30;;;;;;4990802;28;19976;-89
2023/03/11 03:17:53;;;;;;;;;;;6.50;62.50;;;;;;4990480;28;19926;-88
2023/03/11 03:20:21;;;;;;;;;;;6.50;62.50;;;;;;4990754;28;19924;-88
2023/03/11 03:22:47;;;;;;;;;;;6.60;62.40;;;;;;4990202;28;20393;-89
2023/03/11 03:25:12;;;;;;;;;;;6.60;62.30;;;;;;4989931;28;19945;-89
2023/03/11 03:27:38;;;;;;;;;;;6.60;62.20;;;;;;4990084;28;19913;-88
2023/03/11 03:30:05;;;;;;;;;;;6.70;62.30;;;;;;4990468;28;20008;-89
2023/03/11 03:32:30;;;;;;;;;;;6.70;62.30;;;;;;4990438;28;19918;-87
2023/03/11 03:34:57;;;;;;;;;;;6.70;62.20;;;;;;4990117;28;19921;-89
2023/03/11 03:37:24;;;;;;;;;;;6.70;62.10;;;;;;4988823;28;19922;-89
2023/03/11 03:39:49;;;;;;;;;;;6.70;62.00;;;;;;4990454;28;19914;-87
2023/03/11 03:42:15;;;;;;;;;;;6.70;62.00;;;;;;4990320;28;19913;-89
2023/03/11 03:44:40;;;;;;;;;;;6.70;62.10;;;;;;4990236;28;19924;-88
2023/03/11 03:47:06;;;;;;;;;;;6.70;62.10;;;;;;4990038;28;20000;-87
2023/03/11 03:49:31;;;;;;;;;;;6.70;62.00;;;;;;4989930;28;19917;-89
2023/03/11 03:51:57;;;;;;;;;;;6.70;61.80;;;;;;4990167;28;19961;-89
2023/03/11 03:54:22;;;;;;;;;;;6.70;61.90;;;;;;4990728;28;19984;-89
2023/03/11 03:56:48;;;;;;;;;;;6.70;61.70;;;;;;4988806;28;20704;-87
2023/03/11 03:59:13;;;;;;;;;;;6.70;61.80;;;;;;4989657;28;19968;-89
2023/03/11 04:01:39;;;;;;;;;;;6.70;61.70;;;;;;4990285;28;19941;-87
2023/03/11 04:04:04;;;;;;;;;;;6.70;61.70;;;;;;4972455;28;20296;-87
2023/03/11 04:06:30;;;;;;;;;;;6.60;61.70;;;;;;4990606;28;19957;-88
2023/03/11 04:08:56;;;;;;;;;;;6.60;61.70;;;;;;4988918;28;19925;-88
2023/03/11 04:11:21;;;;;;;;;;;6.60;61.70;;;;;;4990342;28;19921;-89
2023/03/11 04:13:47;;;;;;;;;;;6.60;61.70;;;;;;4991567;28;19968;-88
2023/03/11 04:16:16;;;;;;;;;;;6.50;61.70;;;;;;4992623;28;20009;-88
2023/03/11 04:18:42;;;;;;;;;;;6.50;62.00;;;;;;4993708;28;19998;-89
2023/03/11 04:21:07;;;;;;;;;;;6.60;61.80;;;;;;4993441;28;19933;-89
2023/03/11 04:23:33;;;;;;;;;;;6.60;61.80;;;;;;4994013;28;19918;-89
2023/03/11 04:25:58;;;;;;;;;;;6.60;61.80;;;;;;4976136;28;20388;-89
2023/03/11 04:28:24;;;;;;;;;;;6.60;61.60;;;;;;4993518;28;19937;-88
2023/03/11 04:30:49;;;;;;;;;;;6.60;61.50;;;;;;4993355;28;19910;-89
2023/03/11 04:33:15;;;;;;;;;;;6.60;61.50;;;;;;4975837;28;20408;-87
2023/03/11 04:35:41;;;;;;;;;;;6.60;61.60;;;;;;4993432;28;19921;-89
2023/03/11 04:38:06;;;;;;;;;;;6.60;61.70;;;;;;4993242;28;19926;-87
2023/03/11 04:40:32;;;;;;;;;;;6.60;61.80;;;;;;4993479;28;20312;-86
2023/03/11 04:42:57;;;;;;;;;;;6.60;61.90;;;;;;4993131;28;19929;-89
2023/03/11 04:45:23;;;;;;;;;;;6.70;61.80;;;;;;4991548;28;19910;-87
2023/03/11 04:47:49;;;;;;;;;;;6.70;61.80;;;;;;4993428;28;20340;-89
2023/03/11 04:50:15;;;;;;;;;;;6.70;61.70;;;;;;4975126;28;19920;-88
2023/03/11 04:52:41;;;;;;;;;;;6.70;61.70;;;;;;4993016;28;20016;-87
2023/03/11 04:55:06;;;;;;;;;;;6.80;61.60;;;;;;4993193;28;19942;-88
2023/03/11 04:57:32;;;;;;;;;;;6.80;61.60;;;;;;4992720;28;19968;-86
2023/03/11 04:59:57;;;;;;;;;;;6.80;61.60;;;;;;4992847;28;19910;-89
2023/03/11 05:02:23;;;;;;;;;;;6.80;61.60;;;;;;4974858;28;19933;-89
2023/03/11 05:04:48;;;;;;;;;;;6.70;61.40;;;;;;4992872;28;19910;-89
2023/03/11 05:07:14;;;;;;;;;;;6.70;61.20;;;;;;4992964;28;19961;-87
2023/03/11 05:09:39;;;;;;;;;;;6.70;61.10;;;;;;4993301;28;19933;-90
2023/03/11 05:12:05;;;;;;;;;;;6.50;60.90;;;;;;4992690;28;19913;-90
2023/03/11 05:14:30;;;;;;;;;;;6.40;60.70;;;;;;4992646;28;19914;-87
2023/03/11 05:16:56;;;;;;;;;;;6.30;60.50;;;;;;4992615;28;20545;-88
2023/03/11 05:19:31;;;;;;;;;;;6.20;60.40;;;;;;4992450;28;20253;-88
2023/03/11 05:21:56;;;;;;;;;;;6.20;60.40;;;;;;4992641;28;20013;-90
2023/03/11 05:24:24;;;;;;;;;;;6.10;60.20;;;;;;4992269;28;20004;-88
2023/03/11 05:26:49;;;;;;;;;;;6.00;60.20;;;;;;4991641;28;20253;-88
2023/03/11 05:29:15;;;;;;;;;;;5.90;60.10;;;;;;4992415;28;20484;-89
2023/03/11 05:31:41;;;;;;;;;;;5.90;59.90;;;;;;4992074;28;20008;-88
2023/03/11 05:34:06;;;;;;;;;;;5.80;59.60;;;;;;4991967;28;19918;-88
2023/03/11 05:36:32;;;;;;;;;;;5.70;59.70;;;;;;4991042;28;19977;-88
2023/03/11 05:38:57;;;;;;;;;;;5.60;59.90;;;;;;4992026;28;19918;-86
2023/03/11 05:41:23;;;;;;;;;;;5.50;60.10;;;;;;4992248;28;20234;-90
2023/03/11 05:43:48;;;;;;;;;;;5.40;60.40;;;;;;4974972;28;19917;-88
2023/03/11 05:46:14;;;;;;;;;;;5.40;60.40;;;;;;4992031;28;19913;-89
2023/03/11 05:48:39;;;;;;;;;;;5.30;60.30;;;;;;4991859;28;19918;-87
2023/03/11 05:51:09;;;;;;;;;;;5.30;60.40;;;;;;4990600;28;19917;-89
2023/03/11 05:53:34;;;;;;;;;;;5.30;60.40;;;;;;4974334;28;19926;-90
2023/03/11 05:56:00;;;;;;;;;;;5.30;60.40;;;;;;4974123;28;19973;-88
2023/03/11 05:58:29;;;;;;;;;;;5.20;60.50;;;;;;4991930;28;19949;-90
2023/03/11 06:00:55;;;;;;;;;;;5.20;60.70;;;;;;4992223;28;19914;-89
2023/03/11 06:03:21;;;;;;;;;;;5.20;60.90;;;;;;4991882;28;20331;-86
2023/03/11 06:05:47;;;;;;;;;;;5.20;61.10;;;;;;4991826;28;19949;-90
2023/03/11 06:08:13;;;;;;;;;;;5.20;61.20;;;;;;4991677;28;19968;-88
2023/03/11 06:10:38;;;;;;;;;;;5.20;61.40;;;;;;4991706;28;19933;-90
2023/03/11 06:13:04;;;;;;;;;;;5.30;61.40;;;;;;4991390;28;19922;-89
2023/03/11 06:15:31;;;;;;;;;;;5.30;61.60;;;;;;4991369;28;20288;-90
2023/03/11 06:17:56;;;;;;;;;;;5.40;61.90;;;;;;4990205;28;20284;-88
2023/03/11 06:20:22;;;;;;;;;;;5.50;62.00;;;;;;4973896;28;19917;-90
2023/03/11 06:22:48;;;;;;;;;;;5.60;62.20;;;;;;4973959;28;19968;-90
2023/03/11 06:25:13;;;;;;;;;;;5.70;62.20;;;;;;4973852;28;19913;-90
2023/03/11 06:27:39;;;;;;;;;;;5.80;62.30;;;;;;4991324;28;19921;-88
2023/03/11 06:30:05;;;;;;;;;;;6.00;62.20;;;;;;4991284;28;19910;-87
2023/03/11 06:32:33;;;;;;;;;;;6.10;62.20;;;;;;4973519;28;19988;-87
2023/03/11 06:34:58;;;;;;;;;;;6.20;62.20;;;;;;4991385;28;19913;-90
2023/03/11 06:37:24;;;;;;;;;;;6.30;62.20;;;;;;4990478;28;20033;-88
2023/03/11 06:39:53;;;;;;;;;;;6.40;62.10;;;;;;4991150;28;19933;-91
2023/03/11 06:42:18;;;;;;;;;;;6.50;62.00;;;;;;4991028;28;19909;-89
2023/03/11 06:44:46;;;;;;;;;;;6.60;61.90;;;;;;4994803;28;20008;-88
2023/03/11 06:47:11;;;;;;;;;;;6.60;61.80;;;;;;5010483;28;19909;-90
2023/03/11 06:49:39;;;;;;;;;;;6.70;61.70;;;;;;5010423;28;19916;-91
2023/03/11 06:52:05;;;;;;;;;;;6.70;61.70;;;;;;5010278;28;19910;-91
2023/03/11 06:54:31;;;;;;;;;;;6.80;61.70;;;;;;5010492;28;19909;-89
2023/03/11 06:56:56;;;;;;;;;;;6.80;61.60;;;;;;5010630;28;19924;-88
2023/03/11 06:59:22;;;;;;;;;;;6.90;61.60;;;;;;5010635;28;20531;-88
2023/03/11 07:01:47;;;;;;;;;;;7.00;61.40;;;;;;5010268;28;19910;-91
2023/03/11 07:04:13;;;;;;;;;;;7.00;61.40;;;;;;5010317;28;19944;-92
2023/03/11 07:06:40;;;;;;;;;;;7.00;61.50;;;;;;5009336;28;20282;-91
2023/03/11 07:09:05;;;;;;;;;;;7.10;61.40;;;;;;5010463;28;20372;-86
2023/03/11 07:11:31;;;;;;;;;;;7.20;61.40;;;;;;4992163;28;19969;-88
2023/03/11 07:13:56;;;;;;;;;;;7.20;61.40;;;;;;5010412;28;19932;-90
2023/03/11 07:16:24;;;;;;;;;;;7.30;61.40;;;;;;5009813;28;19932;-89
2023/03/11 07:18:50;;;;;;;;;;;7.30;61.40;;;;;;5008630;28;20396;-88
2023/03/11 07:21:17;;;;;;;;;;;7.30;61.40;;;;;;5010355;28;19916;-88
2023/03/11 07:23:43;;;;;;;;;;;7.30;61.40;;;;;;5010672;28;19917;-89
2023/03/11 07:26:09;;;;;;;;;;;7.30;61.50;;;;;;5010301;28;20000;-89
2023/03/11 07:28:35;;;;;;;;;;;7.30;61.40;;;;;;5008972;28;19918;-89
2023/03/11 07:31:05;;;;;;;;;;;7.40;61.50;;;;;;5010042;28;19936;-90
2023/03/11 07:33:30;;;;;;;;;;;7.40;61.40;;;;;;5010489;28;19917;-88
2023/03/11 07:35:56;;;;;;;;;;;7.40;61.60;;;;;;5008803;28;20593;-90
2023/03/11 07:38:22;;;;;;;;;;;7.50;61.60;;;;;;4992014;28;20017;-89
2023/03/11 07:40:56;;;;;;;;;;;7.50;61.60;;;;;;4992381;28;20394;-88
2023/03/11 07:43:24;;;;;;;;;;;7.60;62.70;;;;;;5010119;28;20343;-90
2023/03/11 07:45:50;;;;;;;;;;;7.80;63.00;;;;;;5008709;28;19941;-90
2023/03/11 07:48:16;;;;;;;;;;;8.20;64.80;;;;;;5009146;28;19940;-89
2023/03/11 07:50:42;;;;;;;;;;;8.60;65.70;;;;;;5012898;28;19914;-91
2023/03/11 07:53:08;;;;;;;;;;;9.20;65.90;;;;;;5012339;28;19921;-90
2023/03/11 07:55:34;;;;;;;;;;;9.70;65.10;;;;;;5013658;28;19917;-90
2023/03/11 07:58:00;;;;;;;;;;;10.20;65.90;;;;;;5012722;28;20020;-93
2023/03/11 08:00:25;;;;;;;;;;;10.90;66.00;;;;;;5014676;28;19910;-91
2023/03/11 08:02:51;;;;;;;;;;;11.50;66.10;;;;;;5012541;28;19922;-93
2023/03/11 08:05:19;;;;;;;;;;;12.20;66.00;;;;;;5013634;28;19910;-94
2023/03/11 08:07:45;;;;;;;;;;;12.80;65.80;;;;;;5013695;28;20257;-93
2023/03/11 08:10:11;;;;;;;;;;;13.40;65.00;;;;;;5012361;28;19956;-91
2023/03/11 08:12:36;;;;;;;;;;;13.90;65.00;;;;;;5011974;28;19921;-90
2023/03/11 08:15:02;;;;;;;;;;;14.40;64.60;;;;;;5013261;28;19948;-93
2023/03/11 08:17:31;;;;;;;;;;;14.90;64.20;;;;;;5012036;28;19983;-91
2023/03/11 08:19:59;;;;;;;;;;;15.40;64.10;;;;;;5013140;28;19964;-88
2023/03/11 08:22:24;;;;;;;;;;;15.80;63.70;;;;;;5012384;28;20277;-89
2023/03/11 08:24:51;;;;;;;;;;;16.30;63.20;;;;;;5012531;28;19910;-88
2023/03/11 08:27:17;;;;;;;;;;;16.70;62.90;;;;;;5012420;28;20393;-90
2023/03/11 08:29:46;;;;;;;;;;;17.00;62.30;;;;;;5013151;28;19910;-90
2023/03/11 08:32:11;;;;;;;;;;;17.40;62.30;;;;;;4995231;28;19910;-88
2023/03/11 08:34:38;;;;;;;;;;;17.70;61.70;;;;;;5013311;28;19921;-89
2023/03/11 08:37:03;;;;;;;;;;;17.90;60.60;;;;;;5013098;28;20552;-89
2023/03/11 08:39:29;;;;;;;;;;;18.10;60.90;;;;;;5012670;28;19921;-88
2023/03/11 08:41:54;;;;;;;;;;;18.30;60.70;;;;;;4995162;28;20003;-89
2023/03/11 08:44:20;;;;;;;;;;;18.50;61.20;;;;;;5013293;28;19918;-90
2023/03/11 08:46:46;;;;;;;;;;;18.70;60.40;;;;;;5011713;28;20251;-89
2023/03/11 08:49:12;;;;;;;;;;;18.80;60.10;;;;;;5011485;28;19924;-89
2023/03/11 08:51:37;;;;;;;;;;;19.00;61.10;;;;;;5011321;28;19909;-90
2023/03/11 08:54:03;;;;;;;;;;;19.20;61.30;;;;;;5011509;28;19944;-88
2023/03/11 08:56:29;;;;;;;;;;;19.50;60.80;;;;;;5012799;28;20016;-89
2023/03/11 08:58:54;;;;;;;;;;;19.70;60.60;;;;;;4995110;28;19928;-92
2023/03/11 09:01:21;;;;;;;;;;;19.80;60.40;;;;;;5011268;28;19917;-89
2023/03/11 09:03:47;;;;;;;;;;;20.00;61.20;;;;;;5011377;28;20261;-90
2023/03/11 09:06:31;;;;;;;;;;;20.20;61.10;;;;;;5012621;28;19920;-91
2023/03/11 09:08:59;;;;;;;;;;;20.30;60.20;;;;;;5012703;28;20272;-91
2023/03/11 09:11:25;;;;;;;;;;;20.40;59.80;;;;;;5011123;28;19916;-92
2023/03/11 09:13:51;;;;;;;;;;;20.50;60.60;;;;;;5010891;28;19921;-92
2023/03/11 09:16:18;;;;;;;;;;;20.70;60.00;;;;;;4992808;28;19914;-89
2023/03/11 09:18:43;;;;;;;;;;;20.80;60.00;;;;;;4985131;28;20482;-91
2023/03/11 09:21:09;;;;;;;;;;;20.90;60.10;;;;;;5002214;28;19909;-90
2023/03/11 09:23:35;;;;;;;;;;;21.00;59.90;;;;;;4981528;28;19922;-89
2023/03/11 09:26:01;;;;;;;;;;;21.10;60.30;;;;;;4987578;28;19928;-91
2023/03/11 09:28:26;;;;;;;;;;;21.20;59.70;;;;;;4974790;28;20469;-92
2023/03/11 09:30:52;;;;;;;;;;;21.30;60.50;;;;;;4978733;28;19917;-90
2023/03/11 09:33:18;;;;;;;;;;;21.50;60.90;;;;;;4978042;28;19924;-90
2023/03/11 09:35:43;;;;;;;;;;;21.60;60.10;;;;;;5006398;28;19913;-90
2023/03/11 09:38:09;;;;;;;;;;;21.70;60.10;;;;;;4978759;28;20291;-90
2023/03/11 09:40:53;;;;;;;;;;;21.80;59.80;;;;;;4980595;28;19914;-92
2023/03/11 09:43:30;;;;;;;;;;;21.80;58.90;;;;;;5009475;28;19925;-90
2023/03/11 09:46:03;;;;;;;;;;;21.80;59.80;;;;;;5017659;28;19959;-89
2023/03/11 09:48:36;;;;;;;;;;;21.90;59.40;;;;;;5031223;28;19940;-92
2023/03/11 09:51:08;;;;;;;;;;;22.00;58.90;;;;;;5031607;28;19913;-90
2023/03/11 09:53:34;;;;;;;;;;;22.10;59.70;;;;;;5020164;28;19957;-90
2023/03/11 09:56:00;;;;;;;;;;;22.30;60.10;;;;;;4990318;28;19910;-89
2023/03/11 09:58:45;;;;;;;;;;;22.50;59.40;;;;;;5000270;28;19925;-92
2023/03/11 10:01:26;;;;;;;;;;;22.60;59.70;;;;;;5011837;28;19916;-91
2023/03/11 10:03:54;;;;;;;;;;;22.80;59.70;;;;;;5009397;28;19921;-92
2023/03/11 10:06:21;;;;;;;;;;;22.90;59.00;;;;;;5011728;28;19980;-92
2023/03/11 10:08:53;;;;;;;;;;;23.00;58.90;;;;;;4993145;28;19924;-90
2023/03/11 10:11:22;;;;;;;;;;;23.10;59.40;;;;;;4989136;28;19920;-89
2023/03/11 10:14:08;;;;;;;;;;;23.20;60.20;;;;;;4984307;28;19913;-89
2023/03/11 10:16:43;;;;;;;;;;;23.40;60.00;;;;;;5003485;28;20376;-90
2023/03/11 10:19:24;;;;;;;;;;;23.70;58.90;;;;;;5001464;28;19918;-90
2023/03/11 10:21:57;;;;;;;;;;;23.80;58.30;;;;;;5005725;28;19914;-89
2023/03/11 10:24:34;;;;;;;;;;;23.80;56.50;;;;;;4999672;28;19918;-91
2023/03/11 10:27:02;;;;;;;;;;;23.70;55.80;;;;;;4990875;28;19976;-89
2023/03/11 10:29:36;;;;;;;;;;;23.60;56.70;;;;;;4993202;28;20416;-88
2023/03/11 10:32:12;;;;;;;;;;;23.50;56.40;;;;;;5010515;28;19909;-90
2023/03/11 10:34:57;;;;;;;;;;;23.50;55.70;;;;;;5010736;28;19913;-90
2023/03/11 10:37:32;;;;;;;;;;;23.60;55.40;;;;;;4992808;28;19922;-89
2023/03/11 10:40:04;;;;;;;;;;;23.60;55.20;;;;;;4993386;28;19914;-93
2023/03/11 10:42:31;;;;;;;;;;;23.60;55.90;;;;;;5010700;28;19919;-92
2023/03/11 10:44:57;;;;;;;;;;;23.70;55.60;;;;;;4992995;28;19914;-90
2023/03/11 10:47:24;;;;;;;;;;;23.80;55.60;;;;;;4993063;28;19918;-93
2023/03/11 10:49:51;;;;;;;;;;;23.80;55.60;;;;;;4993074;28;19914;-94
2023/03/11 10:52:17;;;;;;;;;;;24.00;55.00;;;;;;4992785;28;20362;-93
2023/03/11 10:54:45;;;;;;;;;;;24.00;55.20;;;;;;4992631;28;19913;-94
2023/03/11 10:57:27;;;;;;;;;;;24.10;55.50;;;;;;5010270;28;19940;-91
2023/03/11 10:59:57;;;;;;;;;;;24.10;52.70;;;;;;4992633;28;19920;-90
2023/03/11 11:02:24;;;;;;;;;;;23.80;53.10;;;;;;5009918;28;20353;-90
2023/03/11 11:05:04;;;;;;;;;;;23.70;54.30;;;;;;5010361;28;19914;-90
2023/03/11 11:07:32;;;;;;;;;;;23.80;54.40;;;;;;5010318;28;19922;-91
2023/03/11 11:10:10;;;;;;;;;;;24.00;53.90;;;;;;5010109;28;19957;-91
2023/03/11 11:12:36;;;;;;;;;;;24.10;54.70;;;;;;4973336;28;19918;-93
2023/03/11 11:15:01;;;;;;;;;;;24.20;54.30;;;;;;4973124;28;20365;-90
2023/03/11 11:17:32;;;;;;;;;;;24.40;53.90;;;;;;4990657;28;19934;-89
2023/03/11 11:19:58;;;;;;;;;;;24.40;51.60;;;;;;4990410;28;20459;-89
2023/03/11 11:22:24;;;;;;;;;;;24.40;50.90;;;;;;4973096;28;19924;-88
2023/03/11 11:24:51;;;;;;;;;;;24.30;51.50;;;;;;5001781;28;19909;-90
2023/03/11 11:27:21;;;;;;;;;;;24.30;51.30;;;;;;5010255;28;19913;-93
2023/03/11 11:30:00;;;;;;;;;;;24.00;51.20;;;;;;4992180;28;19953;-91
2023/03/11 11:32:27;;;;;;;;;;;23.70;52.30;;;;;;4992399;28;19918;-91
2023/03/11 11:34:58;;;;;;;;;;;23.60;50.50;;;;;;5006571;28;19917;-89
2023/03/11 11:37:25;;;;;;;;;;;23.50;51.00;;;;;;4992486;28;20308;-89
2023/03/11 11:39:57;;;;;;;;;;;23.50;51.30;;;;;;5009887;28;19963;-92
2023/03/11 11:42:23;;;;;;;;;;;23.50;51.10;;;;;;4992475;28;19924;-91
2023/03/11 11:44:52;;;;;;;;;;;23.60;50.20;;;;;;5018976;28;19952;-90
2023/03/11 11:47:23;;;;;;;;;;;23.10;48.30;;;;;;5028237;28;19959;-89
2023/03/11 11:49:54;;;;;;;;;;;22.60;49.50;;;;;;5027687;28;19916;-90
2023/03/11 11:52:24;;;;;;;;;;;22.50;50.70;;;;;;5029511;28;19913;-90
2023/03/11 11:55:04;;;;;;;;;;;22.70;50.70;;;;;;5022077;28;19909;-93
2023/03/11 11:57:30;;;;;;;;;;;23.20;52.00;;;;;;5028532;28;20360;-92
2023/03/11 11:59:56;;;;;;;;;;;23.60;50.50;;;;;;5028213;28;19967;-90
2023/03/11 12:02:44;;;;;;;;;;;23.60;48.70;;;;;;5028025;28;20426;-91
2023/03/11 12:05:15;;;;;;;;;;;23.10;48.90;;;;;;4973700;28;20406;-89
2023/03/11 12:07:43;;;;;;;;;;;22.80;50.00;;;;;;4990456;28;19922;-92
2023/03/11 12:10:24;;;;;;;;;;;22.30;48.00;;;;;;5021254;28;19909;-90
2023/03/11 12:13:08;;;;;;;;;;;21.70;47.40;;;;;;5028451;28;19917;-91
2023/03/11 12:15:38;;;;;;;;;;;20.90;49.10;;;;;;4988610;28;19913;-91
2023/03/11 12:18:07;;;;;;;;;;;20.20;50.20;;;;;;4990849;28;20032;-90
2023/03/11 12:20:38;;;;;;;;;;;19.70;51.30;;;;;;5027083;28;19913;-89
2023/03/11 12:23:03;;;;;;;;;;;19.30;51.30;;;;;;5023341;28;21536;-89
2023/03/11 12:25:48;;;;;;;;;;;18.90;51.90;;;;;;5026986;28;19996;-90
2023/03/11 12:28:17;;;;;;;;;;;18.40;52.90;;;;;;5027628;28;19921;-90
2023/03/11 12:30:54;;;;;;;;;;;18.00;54.20;;;;;;5028106;28;19920;-88
2023/03/11 12:33:26;;;;;;;;;;;17.70;54.00;;;;;;5020795;28;20380;-91
2023/03/11 12:35:54;;;;;;;;;;;17.80;54.90;;;;;;4995215;28;19910;-88
2023/03/11 12:38:30;;;;;;;;;;;18.00;54.80;;;;;;5012803;28;19929;-88
2023/03/11 12:41:01;;;;;;;;;;;18.10;53.90;;;;;;4995567;28;19910;-90
2023/03/11 12:43:29;;;;;;;;;;;18.00;53.90;;;;;;5009537;28;20023;-89
2023/03/11 12:45:58;;;;;;;;;;;17.60;52.40;;;;;;4995339;28;19909;-89
2023/03/11 12:48:44;;;;;;;;;;;17.20;52.60;;;;;;4994752;28;19918;-89
2023/03/11 12:51:25;;;;;;;;;;;16.90;52.60;;;;;;4987351;28;19917;-91
2023/03/11 12:53:51;;;;;;;;;;;17.20;52.30;;;;;;4990191;28;19918;-92
2023/03/11 12:56:34;;;;;;;;;;;17.50;51.80;;;;;;4993004;28;19925;-89
2023/03/11 12:59:05;;;;;;;;;;;17.70;53.40;;;;;;5011147;28;20387;-92
2023/03/11 13:01:37;;;;;;;;;;;17.50;54.10;;;;;;4986027;28;20383;-92
2023/03/11 13:04:02;;;;;;;;;;;17.30;53.90;;;;;;4982923;28;19928;-88
2023/03/11 13:06:35;;;;;;;;;;;17.50;52.60;;;;;;4982556;28;19914;-92
2023/03/11 13:09:01;;;;;;;;;;;17.70;52.60;;;;;;5011483;28;19918;-91
2023/03/11 13:11:30;;;;;;;;;;;18.00;52.50;;;;;;5012054;28;19917;-89
2023/03/11 13:14:18;;;;;;;;;;;18.40;52.10;;;;;;5012009;28;19913;-88
2023/03/11 13:16:45;;;;;;;;;;;18.50;52.30;;;;;;4987645;28;19929;-91
2023/03/11 13:19:25;;;;;;;;;;;18.70;52.70;;;;;;5012372;28;19985;-88
2023/03/11 13:21:52;;;;;;;;;;;18.70;52.20;;;;;;5011855;28;20327;-90
2023/03/11 13:24:17;;;;;;;;;;;18.30;50.60;;;;;;5012244;28;20024;-88
2023/03/11 13:26:58;;;;;;;;;;;17.80;51.40;;;;;;4994624;28;20016;-89
2023/03/11 13:29:35;;;;;;;;;;;17.40;52.30;;;;;;4994777;28;19913;-91
2023/03/11 13:32:01;;;;;;;;;;;16.90;53.20;;;;;;4994407;28;20052;-89
2023/03/11 13:34:30;;;;;;;;;;;16.50;53.00;;;;;;4994648;28;20361;-87
2023/03/11 13:36:55;;;;;;;;;;;16.10;53.60;;;;;;5012167;28;19917;-88
2023/03/11 13:39:23;;;;;;;;;;;15.70;54.10;;;;;;5012588;28;19918;-87
2023/03/11 13:41:49;;;;;;;;;;;15.40;55.00;;;;;;5011882;28;20048;-91
2023/03/11 13:44:18;;;;;;;;;;;15.20;55.20;;;;;;4994131;28;19999;-90
2023/03/11 13:46:48;;;;;;;;;;;14.90;55.80;;;;;;5010882;28;20056;-91
2023/03/11 13:49:14;;;;;;;;;;;14.70;56.20;;;;;;4994111;28;20384;-92
2023/03/11 13:51:44;;;;;;;;;;;14.60;56.50;;;;;;4994203;28;19995;-92
2023/03/11 13:54:09;;;;;;;;;;;14.50;57.30;;;;;;4993974;28;19913;-91
2023/03/11 13:56:38;;;;;;;;;;;14.50;57.60;;;;;;4993794;28;19928;-92
2023/03/11 13:59:22;;;;;;;;;;;14.40;57.20;;;;;;5011732;28;19929;-91
2023/03/11 14:01:51;;;;;;;;;;;14.30;56.80;;;;;;5011250;28;19955;-87
2023/03/11 14:04:24;;;;;;;;;;;14.30;56.00;;;;;;5011163;28;19967;-88
2023/03/11 14:06:50;;;;;;;;;;;14.10;56.90;;;;;;5010999;28;19910;-88
2023/03/11 14:09:19;;;;;;;;;;;14.00;57.50;;;;;;5011194;28;19968;-88
2023/03/11 14:11:47;;;;;;;;;;;14.00;57.20;;;;;;4994090;28;19996;-91
2023/03/11 14:14:31;;;;;;;;;;;13.80;58.10;;;;;;4983774;28;19925;-88
2023/03/11 14:17:00;;;;;;;;;;;13.80;59.00;;;;;;4978626;28;19922;-88
2023/03/11 14:19:27;;;;;;;;;;;13.80;58.90;;;;;;4993212;28;19925;-90
2023/03/11 14:21:54;;;;;;;;;;;13.80;59.80;;;;;;4991881;28;19913;-90
2023/03/11 14:24:25;;;;;;;;;;;13.80;57.50;;;;;;4988988;28;19928;-92
2023/03/11 14:26:54;;;;;;;;;;;13.70;57.10;;;;;;4991247;28;19909;-93
2023/03/11 14:29:23;;;;;;;;;;;13.80;57.40;;;;;;4984238;28;19934;-93